Time;durP1;ratioP1;P1;durP2;ratioP2;P2;SDS_P1;SDS_P2;PMS_P1;PMS_P2;Temp;Humidity;BMP_temperature;BMP_pressure;BME280_temperature;BME280_humidity;BME280_pressure;Samples;Min_cycle;Max_cycle;Signal;HPM_P1;HPM_P2
2022/06/05 00:00:07;;;;;;;9.48;5.68;;;12.10;99.90;;;;;;5092333;28;20059;-71
2022/06/05 00:02:48;;;;;;;8.32;4.80;;;12.00;99.90;;;;;;5092042;28;20065;-70
2022/06/05 00:05:19;;;;;;;9.82;5.20;;;12.00;99.90;;;;;;5091674;28;20075;-70
2022/06/05 00:08:00;;;;;;;9.10;5.10;;;11.90;99.90;;;;;;5092180;28;20052;-70
2022/06/05 00:10:32;;;;;;;7.82;5.10;;;12.00;99.90;;;;;;5092307;28;20055;-70
2022/06/05 00:13:04;;;;;;;6.90;5.00;;;11.90;99.90;;;;;;5073988;28;20047;-70
2022/06/05 00:15:30;;;;;;;7.72;5.00;;;11.90;99.90;;;;;;5092420;28;20060;-70
2022/06/05 00:17:56;;;;;;;8.95;5.13;;;11.80;99.90;;;;;;5092019;28;20052;-71
2022/06/05 00:20:23;;;;;;;9.30;6.28;;;11.90;99.90;;;;;;5092145;28;20048;-70
2022/06/05 00:22:48;;;;;;;9.80;5.90;;;11.80;99.90;;;;;;5073158;28;20515;-70
2022/06/05 00:25:14;;;;;;;7.25;5.35;;;11.80;99.90;;;;;;5073811;28;20052;-70
2022/06/05 00:27:55;;;;;;;10.25;5.57;;;11.80;99.90;;;;;;5091880;28;20044;-70
2022/06/05 00:30:23;;;;;;;8.63;5.50;;;11.80;99.90;;;;;;5091584;28;20044;-69
2022/06/05 00:33:05;;;;;;;11.27;5.43;;;11.60;99.90;;;;;;5073457;28;20114;-70
2022/06/05 00:35:51;;;;;;;8.88;5.45;;;11.70;99.90;;;;;;5073001;28;20169;-71
2022/06/05 00:38:28;;;;;;;8.40;5.30;;;11.70;99.90;;;;;;5073376;28;20080;-69
2022/06/05 00:41:12;;;;;;;9.20;5.68;;;11.70;99.90;;;;;;5091436;28;20504;-71
2022/06/05 00:43:38;;;;;;;12.43;5.63;;;11.70;99.90;;;;;;5091967;28;20050;-70
2022/06/05 00:46:04;;;;;;;8.40;5.10;;;11.70;99.90;;;;;;5091596;28;20040;-70
2022/06/05 00:48:30;;;;;;;9.68;4.85;;;11.70;99.90;;;;;;5091284;28;20059;-70
2022/06/05 00:50:55;;;;;;;11.57;5.63;;;11.70;99.90;;;;;;5091058;28;20480;-71
2022/06/05 00:53:21;;;;;;;8.32;5.35;;;11.70;99.90;;;;;;5090794;28;20044;-70
2022/06/05 00:55:50;;;;;;;8.48;5.22;;;11.70;99.90;;;;;;5091549;28;20139;-70
2022/06/05 00:58:18;;;;;;;7.22;5.25;;;11.70;99.90;;;;;;5091443;28;20050;-70
2022/06/05 01:00:52;;;;;;;9.75;5.32;;;11.70;99.90;;;;;;5091433;28;20052;-70
2022/06/05 01:03:19;;;;;;;7.88;5.60;;;11.60;99.90;;;;;;5091260;28;20044;-71
2022/06/05 01:05:45;;;;;;;8.60;5.47;;;11.60;99.90;;;;;;5090981;28;20109;-70
2022/06/05 01:08:12;;;;;;;9.63;6.57;;;11.60;99.90;;;;;;5091416;28;20060;-70
2022/06/05 01:10:44;;;;;;;8.95;5.85;;;11.60;99.90;;;;;;5091314;28;20048;-70
2022/06/05 01:13:47;;;;;;;8.25;5.50;;;11.50;99.90;;;;;;5091202;28;20139;-73
2022/06/05 01:16:29;;;;;;;8.10;5.50;;;11.50;99.90;;;;;;5091004;28;20488;-70
2022/06/05 01:19:01;;;;;;;9.05;5.80;;;11.50;99.90;;;;;;5091407;28;20048;-70
2022/06/05 01:21:29;;;;;;;8.68;5.82;;;11.50;99.90;;;;;;5091382;28;20052;-70
2022/06/05 01:24:16;;;;;;;11.60;5.45;;;11.50;99.90;;;;;;5091008;28;20052;-70
2022/06/05 01:26:52;;;;;;;11.50;5.75;;;11.50;99.90;;;;;;5091332;28;20059;-69
2022/06/05 01:29:39;;;;;;;11.43;6.00;;;11.50;99.90;;;;;;5091271;28;20044;-70
2022/06/05 01:32:12;;;;;;;11.15;6.25;;;11.50;99.90;;;;;;5091001;28;20113;-70
2022/06/05 01:34:44;;;;;;;9.35;5.63;;;11.50;99.90;;;;;;5091147;28;20056;-70
2022/06/05 01:37:12;;;;;;;11.80;6.38;;;11.50;99.90;;;;;;5090522;28;20048;-72
2022/06/05 01:39:53;;;;;;;9.32;5.93;;;11.50;99.90;;;;;;5091038;28;20047;-70
2022/06/05 01:42:26;;;;;;;11.95;6.03;;;11.50;99.90;;;;;;5090907;28;20051;-70
2022/06/05 01:44:57;;;;;;;9.40;5.93;;;11.40;99.90;;;;;;5091233;28;20048;-69
2022/06/05 01:47:27;;;;;;;9.07;6.07;;;11.50;99.90;;;;;;5090995;28;20091;-71
2022/06/05 01:49:57;;;;;;;8.43;6.07;;;11.40;99.90;;;;;;5090812;28;20047;-71
2022/06/05 01:52:52;;;;;;;12.52;6.25;;;11.40;99.90;;;;;;5090528;28;20067;-70
2022/06/05 01:55:38;;;;;;;9.68;6.43;;;11.40;99.90;;;;;;5090884;28;20047;-70
2022/06/05 01:58:06;;;;;;;12.25;6.50;;;11.40;99.90;;;;;;5091015;28;20056;-70
2022/06/05 02:00:33;;;;;;;9.38;5.93;;;11.40;99.90;;;;;;5090847;28;20135;-72
2022/06/05 02:03:06;;;;;;;10.48;6.25;;;11.40;99.90;;;;;;5090802;28;20048;-70
2022/06/05 02:05:57;;;;;;;8.85;5.93;;;11.40;99.90;;;;;;5091732;28;20496;-70
2022/06/05 02:08:30;;;;;;;10.70;6.35;;;11.40;99.90;;;;;;5094506;28;20059;-70
2022/06/05 02:11:15;;;;;;;14.25;7.07;;;11.30;99.90;;;;;;5076187;28;20064;-70
2022/06/05 02:13:41;;;;;;;10.15;6.47;;;11.30;99.90;;;;;;5094492;28;20080;-69
2022/06/05 02:16:08;;;;;;;14.10;7.00;;;11.30;99.90;;;;;;5076498;28;20067;-69
2022/06/05 02:18:34;;;;;;;13.95;6.88;;;11.30;99.90;;;;;;5094314;28;20048;-70
2022/06/05 02:21:01;;;;;;;11.77;7.03;;;11.30;99.90;;;;;;5094251;28;20046;-69
2022/06/05 02:23:35;;;;;;;11.43;7.32;;;11.30;99.90;;;;;;5094009;28;20052;-70
2022/06/05 02:26:06;;;;;;;12.40;6.97;;;11.30;99.90;;;;;;5093827;28;20488;-71
2022/06/05 02:28:31;;;;;;;10.82;6.32;;;11.30;99.90;;;;;;5094170;28;20136;-70
2022/06/05 02:31:18;;;;;;;12.55;6.40;;;11.20;99.90;;;;;;5093843;28;20131;-70
2022/06/05 02:34:03;;;;;;;12.95;7.22;;;11.20;99.90;;;;;;5094012;28;20051;-69
2022/06/05 02:36:49;;;;;;;12.68;6.57;;;11.20;99.90;;;;;;5093282;28;20044;-70
2022/06/05 02:39:23;;;;;;;12.10;6.47;;;11.20;99.90;;;;;;5079270;28;20068;-72
2022/06/05 02:42:22;;;;;;;14.02;7.38;;;11.20;99.90;;;;;;5093820;28;20047;-70
2022/06/05 02:44:52;;;;;;;12.00;7.03;;;11.20;99.90;;;;;;5075718;28;20048;-70
2022/06/05 02:47:40;;;;;;;12.35;6.75;;;11.20;99.90;;;;;;5093746;28;20123;-70
2022/06/05 02:50:31;;;;;;;12.55;6.97;;;11.20;99.90;;;;;;5093793;28;20472;-70
2022/06/05 02:53:03;;;;;;;13.68;7.28;;;11.20;99.90;;;;;;5075341;28;20131;-71
2022/06/05 02:55:29;;;;;;;12.25;7.35;;;11.20;99.90;;;;;;5093657;28;20113;-70
2022/06/05 02:57:56;;;;;;;13.18;6.85;;;11.20;99.90;;;;;;5093711;28;20047;-70
2022/06/05 03:00:30;;;;;;;13.55;7.22;;;11.20;99.90;;;;;;5093601;28;20048;-70
2022/06/05 03:05:41;;;;;;;14.65;7.00;;;11.20;99.90;;;;;;5093115;28;20154;-70
2022/06/05 03:08:10;;;;;;;13.50;6.88;;;11.20;99.90;;;;;;5092561;28;20105;-70
2022/06/05 03:10:36;;;;;;;12.85;7.43;;;11.00;99.90;;;;;;5092494;28;20086;-70
2022/06/05 03:13:03;;;;;;;11.98;7.55;;;11.20;99.90;;;;;;5092468;28;20040;-70
2022/06/05 03:15:29;;;;;;;12.30;6.95;;;11.20;99.90;;;;;;5092513;28;20048;-70
2022/06/05 03:17:55;;;;;;;12.48;7.75;;;11.20;99.90;;;;;;5092559;28;20044;-69
2022/06/05 03:20:21;;;;;;;13.73;7.57;;;11.20;99.90;;;;;;5093152;28;20097;-71
2022/06/05 03:22:47;;;;;;;12.40;6.72;;;11.20;99.90;;;;;;5074968;28;20081;-70
2022/06/05 03:25:19;;;;;;;14.57;7.50;;;11.20;99.90;;;;;;5093074;28;20043;-70
2022/06/05 03:27:45;;;;;;;10.52;7.10;;;11.20;99.90;;;;;;5092937;28;20673;-70
2022/06/05 03:30:11;;;;;;;12.75;7.38;;;11.20;99.90;;;;;;5093055;28;20096;-69
2022/06/05 03:32:37;;;;;;;11.65;7.45;;;11.20;99.90;;;;;;5092921;28;20051;-71
2022/06/05 03:35:05;;;;;;;12.82;7.40;;;11.30;99.90;;;;;;5092963;28;20044;-70
2022/06/05 03:37:31;;;;;;;12.32;7.35;;;11.30;99.90;;;;;;5092199;28;20040;-69
2022/06/05 03:39:56;;;;;;;12.57;7.93;;;11.30;99.90;;;;;;5074866;28;20396;-70
2022/06/05 03:42:23;;;;;;;11.73;6.82;;;11.30;99.90;;;;;;5058336;28;20058;-70
2022/06/05 03:44:48;;;;;;;12.43;7.28;;;11.30;99.90;;;;;;5074774;28;20055;-70
2022/06/05 03:47:14;;;;;;;11.70;6.80;;;11.40;99.90;;;;;;5058306;28;20052;-70
2022/06/05 03:49:40;;;;;;;13.00;7.72;;;11.40;99.90;;;;;;5092652;28;20044;-69
2022/06/05 03:52:07;;;;;;;13.15;7.22;;;11.40;99.90;;;;;;5092563;28;20059;-70
2022/06/05 03:54:33;;;;;;;12.90;7.22;;;11.50;99.90;;;;;;5092680;28;20047;-70
2022/06/05 03:57:00;;;;;;;12.85;7.15;;;11.50;99.90;;;;;;5092115;28;20044;-70
2022/06/05 03:59:26;;;;;;;13.82;7.80;;;11.50;99.90;;;;;;5092346;28;20048;-70
2022/06/05 04:01:51;;;;;;;12.43;7.38;;;11.50;99.90;;;;;;5092101;28;20043;-70
2022/06/05 04:04:17;;;;;;;13.73;7.40;;;11.60;99.90;;;;;;5074194;28;20056;-69
2022/06/05 04:06:43;;;;;;;12.25;7.43;;;11.60;99.90;;;;;;5091748;28;20062;-69
2022/06/05 04:09:09;;;;;;;12.32;7.07;;;11.60;99.90;;;;;;5092340;28;20052;-71
2022/06/05 04:11:37;;;;;;;12.85;7.65;;;11.70;99.90;;;;;;5092101;28;20131;-69
2022/06/05 04:14:03;;;;;;;15.13;7.72;;;11.70;99.90;;;;;;5092066;28;20052;-70
2022/06/05 04:16:30;;;;;;;12.15;7.43;;;11.80;99.90;;;;;;5092189;28;20563;-70
2022/06/05 04:18:57;;;;;;;13.82;8.00;;;11.80;99.90;;;;;;5091747;28;20048;-71
2022/06/05 04:21:26;;;;;;;13.57;7.80;;;11.80;99.90;;;;;;5092050;28;20415;-70
2022/06/05 04:23:53;;;;;;;12.13;7.30;;;11.80;99.90;;;;;;5091986;28;20044;-70
2022/06/05 04:26:21;;;;;;;13.20;7.45;;;11.80;99.90;;;;;;5092062;28;20048;-70
2022/06/05 04:28:47;;;;;;;14.18;7.82;;;11.80;99.90;;;;;;5091019;28;20047;-70
2022/06/05 04:31:17;;;;;;;12.27;7.35;;;11.90;99.90;;;;;;5073952;28;20462;-69
2022/06/05 04:33:43;;;;;;;12.75;7.80;;;12.00;99.90;;;;;;5091719;28;20153;-70
2022/06/05 04:36:09;;;;;;;13.98;7.43;;;12.10;99.90;;;;;;5091015;28;20079;-69
2022/06/05 04:38:34;;;;;;;14.18;8.50;;;12.20;99.90;;;;;;5091769;28;20059;-69
2022/06/05 04:41:00;;;;;;;14.95;8.00;;;12.30;99.90;;;;;;5073338;28;20059;-71
2022/06/05 04:43:26;;;;;;;15.80;8.23;;;12.40;99.90;;;;;;5091550;28;20063;-70
2022/06/05 04:45:52;;;;;;;13.75;8.05;;;12.50;99.90;;;;;;5091390;28;20058;-69
2022/06/05 04:48:17;;;;;;;13.63;7.85;;;12.60;99.90;;;;;;5091585;28;20048;-70
2022/06/05 04:50:43;;;;;;;13.25;8.15;;;12.70;99.90;;;;;;5091165;28;20068;-70
2022/06/05 04:53:09;;;;;;;14.85;8.48;;;12.80;99.90;;;;;;5091432;28;20120;-70
2022/06/05 04:55:38;;;;;;;13.23;8.20;;;12.90;99.90;;;;;;5091812;28;20522;-70
2022/06/05 04:58:04;;;;;;;12.93;8.18;;;13.10;99.90;;;;;;5091649;28;20054;-70
2022/06/05 05:00:30;;;;;;;12.82;7.97;;;13.10;99.90;;;;;;5091509;28;20138;-70
2022/06/05 05:02:56;;;;;;;13.57;8.30;;;13.30;99.90;;;;;;5091440;28;20464;-71
2022/06/05 05:05:22;;;;;;;14.27;7.68;;;13.40;99.90;;;;;;5091272;28;20043;-70
2022/06/05 05:07:47;;;;;;;12.95;8.13;;;13.50;99.90;;;;;;5090800;28;20135;-70
2022/06/05 05:10:14;;;;;;;15.18;8.05;;;13.60;99.90;;;;;;5091391;28;20088;-71
2022/06/05 05:12:40;;;;;;;13.38;8.15;;;13.70;99.90;;;;;;5091079;28;20044;-70
2022/06/05 05:15:08;;;;;;;16.67;7.88;;;13.70;99.90;;;;;;5073506;28;20122;-71
2022/06/05 05:17:34;;;;;;;12.60;7.80;;;13.80;99.90;;;;;;5091237;28;20561;-71
2022/06/05 05:19:59;;;;;;;14.43;8.70;;;13.90;99.90;;;;;;5091242;28;20079;-70
2022/06/05 05:22:25;;;;;;;13.23;7.57;;;14.00;99.90;;;;;;5090946;28;20476;-71
2022/06/05 05:24:51;;;;;;;13.88;8.52;;;14.00;99.90;;;;;;5073066;28;20094;-69
2022/06/05 05:27:17;;;;;;;11.95;7.90;;;14.10;99.90;;;;;;5091140;28;20055;-70
2022/06/05 05:29:42;;;;;;;12.25;7.50;;;14.20;99.90;;;;;;5091191;28;20044;-71
2022/06/05 05:32:10;;;;;;;14.07;7.35;;;14.20;99.90;;;;;;5090915;28;20105;-70
2022/06/05 05:34:36;;;;;;;12.85;7.53;;;14.30;99.90;;;;;;5090943;28;20106;-70
2022/06/05 05:37:02;;;;;;;12.55;8.10;;;14.40;99.90;;;;;;5072232;28;20043;-70
2022/06/05 05:42:12;;;;;;;10.93;7.32;;;14.40;99.90;;;;;;5094637;28;20583;-70
2022/06/05 05:44:45;;;;;;;14.43;8.32;;;14.50;99.90;;;;;;5095001;28;20131;-69
2022/06/05 05:47:21;;;;;;;12.77;7.60;;;14.50;99.90;;;;;;5094925;28;20097;-69
2022/06/05 05:49:52;;;;;;;11.00;7.43;;;14.60;99.90;;;;;;5094846;28;20135;-69
2022/06/05 05:52:18;;;;;;;10.88;7.13;;;14.70;99.90;;;;;;5094644;28;20048;-70
2022/06/05 05:54:43;;;;;;;12.10;7.85;;;14.60;99.90;;;;;;5076520;28;20117;-70
2022/06/05 05:57:09;;;;;;;12.27;7.72;;;14.70;99.90;;;;;;5076959;28;20080;-70
2022/06/05 05:59:36;;;;;;;11.60;7.30;;;14.70;99.90;;;;;;5094699;28;20416;-70
2022/06/05 06:02:03;;;;;;;13.32;7.57;;;14.80;99.90;;;;;;5094725;28;20052;-70
2022/06/05 06:04:28;;;;;;;10.82;7.70;;;14.80;99.90;;;;;;5094588;28;20083;-70
2022/06/05 06:06:54;;;;;;;11.88;7.20;;;14.90;99.90;;;;;;5094199;28;20110;-70
2022/06/05 06:09:20;;;;;;;11.10;7.18;;;14.90;99.90;;;;;;5094563;28;20556;-70
2022/06/05 06:11:46;;;;;;;12.02;7.82;;;14.90;99.90;;;;;;5094504;28;20087;-70
2022/06/05 06:14:13;;;;;;;11.52;7.68;;;15.00;99.90;;;;;;5094471;28;20048;-70
2022/06/05 06:16:38;;;;;;;10.50;7.35;;;15.00;99.90;;;;;;5094329;28;20105;-70
2022/06/05 06:19:04;;;;;;;11.10;7.32;;;15.10;99.90;;;;;;5094335;28;20052;-70
2022/06/05 06:21:31;;;;;;;13.30;7.28;;;15.10;99.90;;;;;;5094196;28;20048;-70
2022/06/05 06:23:57;;;;;;;12.90;7.85;;;15.20;99.90;;;;;;5094181;28;20059;-70
2022/06/05 06:26:22;;;;;;;10.77;7.00;;;15.30;99.90;;;;;;5094061;28;20059;-70
2022/06/05 06:28:48;;;;;;;12.52;7.72;;;15.30;99.90;;;;;;5094139;28;20044;-70
2022/06/05 06:31:16;;;;;;;9.07;7.03;;;15.30;99.90;;;;;;5075848;28;20405;-71
2022/06/05 06:33:43;;;;;;;10.20;6.68;;;15.40;99.90;;;;;;5093874;28;20048;-71
2022/06/05 06:36:13;;;;;;;10.05;6.82;;;15.50;99.90;;;;;;5075312;28;20196;-70
2022/06/05 06:38:40;;;;;;;9.93;6.10;;;15.50;99.90;;;;;;5094194;28;20039;-69
2022/06/05 06:41:12;;;;;;;9.75;7.05;;;15.60;99.90;;;;;;5093758;28;20048;-71
2022/06/05 06:43:39;;;;;;;11.63;6.53;;;15.70;99.90;;;;;;5094078;28;20144;-71
2022/06/05 06:46:05;;;;;;;11.35;7.03;;;15.70;99.90;;;;;;5094007;28;20643;-71
2022/06/05 06:48:31;;;;;;;10.45;6.97;;;15.80;99.90;;;;;;5093746;28;20055;-71
2022/06/05 06:50:58;;;;;;;8.68;6.55;;;15.90;99.90;;;;;;5093023;28;20408;-71
2022/06/05 06:53:26;;;;;;;10.63;6.75;;;16.00;99.90;;;;;;5093286;28;20056;-70
2022/06/05 06:55:53;;;;;;;11.15;6.65;;;16.10;99.90;;;;;;5093600;28;20149;-70
2022/06/05 06:58:19;;;;;;;12.30;6.97;;;16.20;99.90;;;;;;5075722;28;20044;-70
2022/06/05 07:00:44;;;;;;;10.32;6.75;;;16.30;99.90;;;;;;5093571;28;20052;-70
2022/06/05 07:03:11;;;;;;;9.63;6.68;;;16.40;99.90;;;;;;5075460;28;20083;-71
2022/06/05 07:05:38;;;;;;;9.70;6.60;;;16.50;99.90;;;;;;5093230;28;20480;-72
2022/06/05 07:08:04;;;;;;;9.38;7.10;;;16.70;99.90;;;;;;5092909;28;20048;-71
2022/06/05 07:10:30;;;;;;;10.25;6.95;;;16.80;99.90;;;;;;5093405;28;20074;-71
2022/06/05 07:12:56;;;;;;;10.45;7.13;;;17.00;99.90;;;;;;5093169;28;20503;-70
2022/06/05 07:15:22;;;;;;;8.63;6.28;;;17.10;99.90;;;;;;5080330;28;20123;-70
2022/06/05 07:17:48;;;;;;;7.70;5.90;;;17.30;99.90;;;;;;5086426;28;20423;-69
2022/06/05 07:20:14;;;;;;;9.25;6.10;;;17.40;99.90;;;;;;5092422;28;20071;-70
2022/06/05 07:22:40;;;;;;;9.13;6.40;;;17.50;99.90;;;;;;5083031;28;20036;-70
2022/06/05 07:25:07;;;;;;;10.32;6.43;;;17.60;99.90;;;;;;5092761;28;20399;-70
2022/06/05 07:27:33;;;;;;;9.00;6.15;;;17.70;99.90;;;;;;5077876;28;20568;-70
2022/06/05 07:29:59;;;;;;;8.32;5.15;;;17.70;99.90;;;;;;5072166;28;20051;-70
2022/06/05 07:32:25;;;;;;;7.85;5.55;;;17.80;99.90;;;;;;5073083;28;20245;-71
2022/06/05 07:34:50;;;;;;;8.25;6.10;;;17.90;99.90;;;;;;5074144;28;20044;-70
2022/06/05 07:37:17;;;;;;;8.30;5.75;;;18.00;99.90;;;;;;5053215;28;20393;-72
2022/06/05 07:39:43;;;;;;;8.30;5.43;;;18.10;99.90;;;;;;5072153;28;20088;-72
2022/06/05 07:42:11;;;;;;;7.55;5.95;;;18.10;99.90;;;;;;5068310;28;20064;-68
2022/06/05 07:44:36;;;;;;;9.32;5.93;;;18.20;99.90;;;;;;5092228;28;20086;-70
2022/06/05 07:47:06;;;;;;;10.85;5.43;;;18.30;99.90;;;;;;5092195;28;20113;-69
2022/06/05 07:49:34;;;;;;;7.43;5.95;;;18.30;99.90;;;;;;5092141;28;20056;-70
2022/06/05 07:54:46;;;;;;;7.57;5.60;;;18.40;99.90;;;;;;5084578;28;20088;-69
2022/06/05 07:57:13;;;;;;;7.88;4.80;;;18.50;99.90;;;;;;5081425;28;20072;-68
2022/06/05 07:59:44;;;;;;;6.88;5.65;;;18.60;99.90;;;;;;5091958;28;20044;-70
2022/06/05 08:02:26;;;;;;;8.18;5.18;;;18.70;99.90;;;;;;5092080;28;20058;-70
2022/06/05 08:04:54;;;;;;;7.32;5.45;;;18.80;99.90;;;;;;5092224;28;20052;-71
2022/06/05 08:07:23;;;;;;;7.43;5.78;;;18.90;99.90;;;;;;5090251;28;20054;-70
2022/06/05 08:09:49;;;;;;;6.68;5.10;;;18.90;99.90;;;;;;5091312;28;20123;-71
2022/06/05 08:12:18;;;;;;;9.13;5.68;;;19.00;99.90;;;;;;5091514;28;20040;-71
2022/06/05 08:14:44;;;;;;;7.18;5.38;;;18.90;99.90;;;;;;5091294;28;20128;-70
2022/06/05 08:17:14;;;;;;;7.40;5.50;;;19.00;99.90;;;;;;5069550;28;20054;-70
2022/06/05 08:19:41;;;;;;;7.55;5.10;;;19.10;99.90;;;;;;5090804;28;20105;-70
2022/06/05 08:22:09;;;;;;;7.20;5.05;;;19.10;99.90;;;;;;5090000;28;20115;-71
2022/06/05 08:24:35;;;;;;;7.18;5.38;;;19.10;99.90;;;;;;5090453;28;20079;-71
2022/06/05 08:27:01;;;;;;;7.70;5.22;;;19.20;99.90;;;;;;5090278;28;20422;-71
2022/06/05 08:29:27;;;;;;;9.88;5.65;;;19.20;99.90;;;;;;5088069;28;20047;-70
2022/06/05 08:31:53;;;;;;;8.57;5.72;;;19.30;99.90;;;;;;5090790;28;20086;-71
2022/06/05 08:34:20;;;;;;;9.43;6.70;;;19.30;99.90;;;;;;5090896;28;20399;-71
2022/06/05 08:36:46;;;;;;;6.40;5.35;;;19.30;99.90;;;;;;5089568;28;20885;-68
2022/06/05 08:42:43;;;;;;;7.25;5.53;;;19.40;99.90;;;;;;5088912;28;20484;-70
2022/06/05 08:45:31;;;;;;;6.80;5.65;;;19.50;99.90;;;;;;5067304;28;20568;-69
2022/06/05 08:48:02;;;;;;;8.57;5.35;;;19.60;99.90;;;;;;5090669;28;20413;-69
2022/06/05 08:50:49;;;;;;;6.82;5.20;;;19.70;99.90;;;;;;5088820;28;20050;-70
2022/06/05 08:53:40;;;;;;;7.70;5.30;;;19.80;99.90;;;;;;5090918;28;20442;-70
2022/06/05 08:56:09;;;;;;;8.20;5.95;;;20.00;99.90;;;;;;5072302;28;20508;-70
2022/06/05 08:58:39;;;;;;;6.65;5.38;;;20.10;99.90;;;;;;5090587;28;20151;-70
2022/06/05 09:01:12;;;;;;;6.65;5.18;;;20.20;99.90;;;;;;5073137;28;20066;-70
2022/06/05 09:03:46;;;;;;;7.72;5.15;;;20.40;99.90;;;;;;5090933;28;20131;-70
2022/06/05 09:06:14;;;;;;;6.38;5.07;;;20.50;99.90;;;;;;5089995;28;20040;-70
2022/06/05 09:08:42;;;;;;;7.53;5.65;;;20.60;99.90;;;;;;5090590;28;20048;-71
2022/06/05 09:11:36;;;;;;;7.00;5.18;;;20.60;99.90;;;;;;5090460;28;20574;-70
2022/06/05 09:14:06;;;;;;;6.78;5.35;;;20.60;99.90;;;;;;5090278;28;20092;-69
2022/06/05 09:16:38;;;;;;;5.97;5.03;;;20.70;99.90;;;;;;5090648;28;20048;-69
2022/06/05 09:19:04;;;;;;;7.22;5.13;;;20.70;99.90;;;;;;5090743;28;20117;-69
2022/06/05 09:21:50;;;;;;;6.82;5.05;;;20.80;99.90;;;;;;5090207;28;20039;-71
2022/06/05 09:24:23;;;;;;;6.30;5.30;;;20.90;99.90;;;;;;5086562;28;20050;-70
2022/06/05 09:27:01;;;;;;;6.63;4.97;;;21.00;99.90;;;;;;5078418;28;20048;-71
2022/06/05 09:29:48;;;;;;;7.40;5.43;;;21.10;99.90;;;;;;5090194;28;20040;-70
2022/06/05 09:32:17;;;;;;;6.57;5.35;;;21.30;99.90;;;;;;5089878;28;20495;-69
2022/06/05 09:35:12;;;;;;;6.78;5.53;;;21.40;99.90;;;;;;5089699;28;20055;-70
2022/06/05 09:37:50;;;;;;;6.15;4.97;;;21.50;99.90;;;;;;5089854;28;20040;-71
2022/06/05 09:40:27;;;;;;;6.00;5.32;;;21.70;99.90;;;;;;5089762;28;20059;-70
2022/06/05 09:43:00;;;;;;;6.32;4.90;;;21.80;99.90;;;;;;5051912;28;20101;-69
2022/06/05 09:45:35;;;;;;;6.22;5.03;;;21.90;99.90;;;;;;5069684;28;20045;-69
2022/06/05 09:48:29;;;;;;;6.97;5.33;;;22.10;99.90;;;;;;5051456;28;20048;-69
2022/06/05 09:50:57;;;;;;;8.90;5.00;;;22.10;99.90;;;;;;5069065;28;20767;-69
2022/06/05 09:53:48;;;;;;;6.45;5.55;;;22.20;99.90;;;;;;5069442;28;20051;-70
2022/06/05 09:56:21;;;;;;;6.78;5.05;;;22.20;99.90;;;;;;5070079;28;20387;-71
2022/06/05 09:59:05;;;;;;;6.38;5.22;;;22.30;99.90;;;;;;5089770;28;20234;-70
2022/06/05 10:01:35;;;;;;;7.43;5.00;;;22.30;99.90;;;;;;5072435;28;20452;-69
2022/06/05 10:04:05;;;;;;;6.28;5.32;;;22.40;99.90;;;;;;5090357;28;20086;-70
2022/06/05 10:06:48;;;;;;;7.32;5.55;;;22.50;99.90;;;;;;5089494;28;20047;-68
2022/06/05 10:09:22;;;;;;;8.05;5.18;;;22.60;99.90;;;;;;5090067;28;20156;-69
2022/06/05 10:11:54;;;;;;;5.35;4.80;;;22.60;99.90;;;;;;5072359;28;20369;-70
2022/06/05 10:14:39;;;;;;;6.38;4.55;;;22.60;99.90;;;;;;5090092;28;20052;-70
2022/06/05 10:17:39;;;;;;;7.13;5.63;;;22.70;99.90;;;;;;5089847;28;20056;-71
2022/06/05 10:20:04;;;;;;;6.22;5.03;;;22.80;99.90;;;;;;5090494;28;20079;-71
2022/06/05 10:22:39;;;;;;;7.22;5.30;;;22.80;99.90;;;;;;5088573;28;20464;-72
2022/06/05 10:25:27;;;;;;;5.90;5.30;;;22.90;99.90;;;;;;5088040;28;20131;-71
2022/06/05 10:28:13;;;;;;;5.85;5.15;;;23.00;99.90;;;;;;5091850;28;20055;-71
2022/06/05 10:30:54;;;;;;;7.07;5.22;;;23.00;99.90;;;;;;5074989;28;20054;-70
2022/06/05 10:33:43;;;;;;;6.93;6.00;;;23.10;99.90;;;;;;5091585;28;20106;-70
2022/06/05 10:36:16;;;;;;;7.13;5.88;;;23.20;99.90;;;;;;5073135;28;20063;-70
2022/06/05 10:39:06;;;;;;;6.28;5.65;;;23.10;99.90;;;;;;5073141;28;20127;-71
2022/06/05 10:41:47;;;;;;;6.38;5.57;;;23.10;99.90;;;;;;5063625;28;20035;-71
2022/06/05 10:44:42;;;;;;;6.57;5.55;;;23.00;99.90;;;;;;5093750;28;20044;-71
2022/06/05 10:47:37;;;;;;;6.38;5.43;;;22.90;99.90;;;;;;5075700;28;20054;-70
2022/06/05 10:50:18;;;;;;;7.43;5.47;;;22.90;99.90;;;;;;5093744;28;20174;-71
2022/06/05 10:53:01;;;;;;;6.70;6.03;;;23.00;99.90;;;;;;5093794;28;20445;-70
2022/06/05 10:55:41;;;;;;;6.15;5.43;;;23.00;99.90;;;;;;5093333;28;20048;-71
2022/06/05 10:58:20;;;;;;;5.70;5.20;;;23.10;99.90;;;;;;5093584;28;20048;-71
2022/06/05 11:00:49;;;;;;;7.20;5.45;;;23.10;99.90;;;;;;5093470;28;20040;-71
2022/06/05 11:03:38;;;;;;;6.50;5.90;;;23.10;99.90;;;;;;5093413;28;20471;-71
2022/06/05 11:06:27;;;;;;;6.07;5.40;;;23.10;99.90;;;;;;5091837;28;20410;-72
2022/06/05 11:09:37;;;;;;;6.25;5.63;;;23.10;99.90;;;;;;5074828;28;20097;-70
2022/06/05 11:15:05;;;;;;;6.32;5.25;;;23.10;99.90;;;;;;5092665;28;20052;-71
2022/06/05 11:17:49;;;;;;;6.65;6.05;;;23.00;99.90;;;;;;5074593;28;20525;-70
2022/06/05 11:20:19;;;;;;;6.07;5.35;;;23.00;99.90;;;;;;5092672;28;20627;-71
2022/06/05 11:23:16;;;;;;;6.07;4.93;;;23.00;99.90;;;;;;5093081;28;20044;-70
2022/06/05 11:25:42;;;;;;;6.95;5.45;;;23.00;99.90;;;;;;5092708;28;20087;-71
2022/06/05 11:28:26;;;;;;;6.55;5.95;;;23.10;99.90;;;;;;5074582;28;20098;-71
2022/06/05 11:31:11;;;;;;;6.88;5.75;;;23.20;99.90;;;;;;5092448;28;20504;-72
2022/06/05 11:34:11;;;;;;;6.40;5.80;;;23.20;99.90;;;;;;5093007;28;20131;-70
2022/06/05 11:36:47;;;;;;;8.60;5.85;;;23.20;99.90;;;;;;5040231;28;20099;-71
2022/06/05 11:39:39;;;;;;;6.35;5.75;;;23.30;99.90;;;;;;5074456;28;20056;-72
2022/06/05 11:42:43;;;;;;;6.55;5.85;;;23.20;99.90;;;;;;5092726;28;20044;-71
2022/06/05 11:45:21;;;;;;;7.00;5.88;;;23.10;99.90;;;;;;5074988;28;20062;-72
2022/06/05 11:48:03;;;;;;;7.30;5.60;;;23.00;99.90;;;;;;5074482;28;20171;-71
2022/06/05 11:51:19;;;;;;;5.95;5.35;;;23.00;99.90;;;;;;5092391;28;20087;-71
2022/06/05 11:53:59;;;;;;;6.10;5.50;;;22.90;99.90;;;;;;5010070;28;20065;-72
2022/06/05 11:57:02;;;;;;;7.70;5.57;;;22.90;99.90;;;;;;4994721;28;20049;-71
2022/06/05 11:59:44;;;;;;;5.82;5.25;;;22.80;99.90;;;;;;5083950;28;20060;-72
2022/06/05 12:02:34;;;;;;;5.63;5.13;;;22.80;99.90;;;;;;5092451;28;20035;-71
2022/06/05 12:05:08;;;;;;;6.30;5.20;;;22.70;99.90;;;;;;5091461;28;20048;-71
2022/06/05 12:07:34;;;;;;;6.35;5.75;;;22.70;99.90;;;;;;5092279;28;20117;-71
2022/06/05 12:10:08;;;;;;;5.45;4.95;;;22.60;99.90;;;;;;5092124;28;20052;-72
2022/06/05 12:12:50;;;;;;;6.22;5.53;;;22.60;99.90;;;;;;5074134;28;20077;-70
2022/06/05 12:15:37;;;;;;;6.50;5.13;;;22.50;99.90;;;;;;5092177;28;20048;-72
2022/06/05 12:18:21;;;;;;;5.93;4.90;;;22.50;99.90;;;;;;5092285;28;20096;-71
2022/06/05 12:20:52;;;;;;;5.35;4.85;;;22.50;99.90;;;;;;5092238;28;20048;-71
2022/06/05 12:23:33;;;;;;;5.20;4.70;;;22.50;99.90;;;;;;5092106;28;20493;-71
2022/06/05 12:26:13;;;;;;;5.90;5.30;;;22.50;99.90;;;;;;5073778;28;20059;-70
2022/06/05 12:28:44;;;;;;;7.03;5.50;;;22.50;99.90;;;;;;5073785;28;20047;-71
2022/06/05 12:31:19;;;;;;;6.20;5.22;;;22.50;99.90;;;;;;5091966;28;20048;-71
2022/06/05 12:34:20;;;;;;;;;;;22.50;99.90;;;;;;5092363;28;20044;-71
2022/06/05 12:36:51;;;;;;;5.72;4.97;;;22.50;99.90;;;;;;5027440;28;20059;-71
2022/06/05 12:39:23;;;;;;;6.05;5.00;;;22.50;99.90;;;;;;5079286;28;20083;-71
2022/06/05 12:42:08;;;;;;;6.20;5.53;;;22.50;99.90;;;;;;5069872;28;20052;-71
2022/06/05 12:44:41;;;;;;;6.60;5.43;;;22.60;99.90;;;;;;5088489;28;20138;-71
2022/06/05 12:47:41;;;;;;;5.68;5.18;;;22.60;99.90;;;;;;5071916;28;20373;-72
2022/06/05 12:50:15;;;;;;;5.38;4.78;;;22.70;99.90;;;;;;5088835;28;20055;-71
2022/06/05 12:52:49;;;;;;;5.60;4.97;;;22.70;99.90;;;;;;5089646;28;20102;-71
2022/06/05 12:55:35;;;;;;;5.43;4.93;;;22.80;99.90;;;;;;5070288;28;20464;-71
2022/06/05 12:58:51;;;;;;;5.78;5.15;;;22.80;99.90;;;;;;5089079;28;20126;-70
2022/06/05 13:01:26;;;;;;;5.55;4.80;;;22.90;99.90;;;;;;5072076;28;20044;-72
2022/06/05 13:04:04;;;;;;;5.53;4.78;;;22.90;99.90;;;;;;5072979;28;20055;-72
2022/06/05 13:06:53;;;;;;;5.13;4.63;;;23.00;99.90;;;;;;5072827;28;20066;-72
2022/06/05 13:09:38;;;;;;;7.47;4.70;;;23.00;99.90;;;;;;5053258;28;20224;-72
2022/06/05 13:12:34;;;;;;;5.07;4.57;;;23.00;99.90;;;;;;5053162;28;20040;-73
2022/06/05 13:15:18;;;;;;;5.97;4.75;;;23.00;99.90;;;;;;5071124;28;20468;-71
2022/06/05 13:17:56;;;;;;;4.70;4.25;;;23.00;99.90;;;;;;5070809;28;20059;-77
2022/06/05 13:20:35;;;;;;;5.00;4.45;;;23.00;99.90;;;;;;5071155;28;20405;-71
2022/06/05 13:23:07;;;;;;;5.50;4.65;;;23.00;99.90;;;;;;5082692;28;20051;-73
2022/06/05 13:26:11;;;;;;;5.60;4.57;;;22.90;99.90;;;;;;5090776;28;20504;-71
2022/06/05 13:29:11;;;;;;;7.30;4.80;;;22.90;99.90;;;;;;5003663;28;20056;-72